sensor_id;sensor_type;location;lat;lon;timestamp;pressure;altitude;pressure_sealevel;temperature;humidity
62655;BME280;48717;55.556;37.816;2023-09-19T00:00:44;99941.19;;;11.09;100.00
62655;BME280;48717;55.556;37.816;2023-09-19T00:03:14;99960.53;;;11.12;100.00
62655;BME280;48717;55.556;37.816;2023-09-19T00:05:42;99913.94;;;10.81;100.00
62655;BME280;48717;55.556;37.816;2023-09-19T00:08:11;99921.84;;;10.82;100.00
62655;BME280;48717;55.556;37.816;2023-09-19T00:10:42;99947.34;;;11.01;100.00
62655;BME280;48717;55.556;37.816;2023-09-19T00:13:10;99959.66;;;10.95;100.00
62655;BME280;48717;55.556;37.816;2023-09-19T00:15:44;99912.16;;;10.58;100.00
62655;BME280;48717;55.556;37.816;2023-09-19T00:18:17;99965.81;;;10.90;100.00
62655;BME280;48717;55.556;37.816;2023-09-19T00:20:48;99946.47;;;10.86;100.00
62655;BME280;48717;55.556;37.816;2023-09-19T00:23:20;99935.03;;;10.87;100.00
62655;BME280;48717;55.556;37.816;2023-09-19T00:25:48;99852.38;;;10.27;100.00
62655;BME280;48717;55.556;37.816;2023-09-19T00:28:17;99964.94;;;10.83;100.00
62655;BME280;48717;55.556;37.816;2023-09-19T00:30:47;99919.22;;;10.56;100.00
62655;BME280;48717;55.556;37.816;2023-09-19T00:33:18;99966.69;;;10.81;100.00
62655;BME280;48717;55.556;37.816;2023-09-19T00:35:53;99968.47;;;10.82;100.00
62655;BME280;48717;55.556;37.816;2023-09-19T00:38:22;99959.66;;;10.75;100.00
62655;BME280;48717;55.556;37.816;2023-09-19T00:40:54;99957.03;;;10.66;100.00
62655;BME280;48717;55.556;37.816;2023-09-19T00:43:24;99926.19;;;10.29;100.00
62655;BME280;48717;55.556;37.816;2023-09-19T00:45:54;99968.34;;;10.32;100.00
62655;BME280;48717;55.556;37.816;2023-09-19T00:48:23;99848.69;;;9.49;100.00
62655;BME280;48717;55.556;37.816;2023-09-19T00:51:02;99831.06;;;9.32;100.00
62655;BME280;48717;55.556;37.816;2023-09-19T00:53:34;99896.16;;;9.74;100.00
62655;BME280;48717;55.556;37.816;2023-09-19T00:56:03;99962.13;;;10.03;100.00
62655;BME280;48717;55.556;37.816;2023-09-19T00:58:34;99899.63;;;9.63;100.00
62655;BME280;48717;55.556;37.816;2023-09-19T01:01:04;99802.94;;;9.12;100.00
62655;BME280;48717;55.556;37.816;2023-09-19T01:03:36;99959.50;;;10.05;100.00
62655;BME280;48717;55.556;37.816;2023-09-19T01:06:05;99788.88;;;9.04;100.00
62655;BME280;48717;55.556;37.816;2023-09-19T01:08:35;99877.66;;;9.50;100.00
62655;BME280;48717;55.556;37.816;2023-09-19T01:16:53;99967.38;;;10.00;100.00
62655;BME280;48717;55.556;37.816;2023-09-19T01:20:00;99929.59;;;9.87;100.00
62655;BME280;48717;55.556;37.816;2023-09-19T01:22:42;99906.69;;;9.71;100.00
62655;BME280;48717;55.556;37.816;2023-09-19T01:25:50;99965.63;;;10.02;100.00
62655;BME280;48717;55.556;37.816;2023-09-19T01:28:32;99964.72;;;9.99;100.00
62655;BME280;48717;55.556;37.816;2023-09-19T01:31:10;99952.44;;;9.98;100.00
62655;BME280;48717;55.556;37.816;2023-09-19T01:33:55;99917.25;;;9.77;100.00
62655;BME280;48717;55.556;37.816;2023-09-19T01:36:24;99940.13;;;9.87;100.00
62655;BME280;48717;55.556;37.816;2023-09-19T01:38:53;99970.03;;;10.02;100.00
62655;BME280;48717;55.556;37.816;2023-09-19T01:44:17;99962.94;;;9.91;100.00
62655;BME280;48717;55.556;37.816;2023-09-19T01:46:46;99947.09;;;9.79;100.00
62655;BME280;48717;55.556;37.816;2023-09-19T01:49:22;99908.38;;;9.59;100.00
62655;BME280;48717;55.556;37.816;2023-09-19T01:52:14;99892.53;;;9.40;100.00
62655;BME280;48717;55.556;37.816;2023-09-19T01:54:51;99911.94;;;9.61;100.00
62655;BME280;48717;55.556;37.816;2023-09-19T01:57:28;99832.78;;;9.18;100.00
62655;BME280;48717;55.556;37.816;2023-09-19T02:00:02;99940.94;;;9.78;100.00
62655;BME280;48717;55.556;37.816;2023-09-19T02:02:44;99875.81;;;9.34;100.00
62655;BME280;48717;55.556;37.816;2023-09-19T02:05:22;99801.00;;;8.80;100.00
62655;BME280;48717;55.556;37.816;2023-09-19T02:07:52;99912.75;;;9.51;100.00
62655;BME280;48717;55.556;37.816;2023-09-19T02:10:20;99938.25;;;9.64;100.00
62655;BME280;48717;55.556;37.816;2023-09-19T02:12:48;99900.38;;;9.33;100.00
62655;BME280;48717;55.556;37.816;2023-09-19T02:15:15;99821.22;;;8.91;100.00
62655;BME280;48717;55.556;37.816;2023-09-19T02:17:44;99809.75;;;8.79;100.00
62655;BME280;48717;55.556;37.816;2023-09-19T02:20:13;99866.94;;;9.14;100.00
62655;BME280;48717;55.556;37.816;2023-09-19T02:22:44;99933.81;;;9.52;100.00
62655;BME280;48717;55.556;37.816;2023-09-19T02:25:31;99899.50;;;9.32;100.00
62655;BME280;48717;55.556;37.816;2023-09-19T02:28:00;99904.81;;;9.38;100.00
62655;BME280;48717;55.556;37.816;2023-09-19T02:30:30;99922.38;;;9.49;100.00
62655;BME280;48717;55.556;37.816;2023-09-19T02:32:57;99927.59;;;9.43;100.00
62655;BME280;48717;55.556;37.816;2023-09-19T02:35:25;99889.75;;;9.17;100.00
62655;BME280;48717;55.556;37.816;2023-09-19T02:37:54;99873.06;;;9.10;100.00
62655;BME280;48717;55.556;37.816;2023-09-19T02:40:21;99926.69;;;9.36;100.00
62655;BME280;48717;55.556;37.816;2023-09-19T02:42:54;99903.81;;;9.24;100.00
62655;BME280;48717;55.556;37.816;2023-09-19T02:45:23;99873.03;;;9.04;100.00
62655;BME280;48717;55.556;37.816;2023-09-19T02:47:50;99896.78;;;9.17;100.00
62655;BME280;48717;55.556;37.816;2023-09-19T02:50:18;99834.28;;;8.75;100.00
62655;BME280;48717;55.556;37.816;2023-09-19T02:52:46;99912.59;;;9.21;100.00
62655;BME280;48717;55.556;37.816;2023-09-19T02:55:18;99923.16;;;9.31;100.00
62655;BME280;48717;55.556;37.816;2023-09-19T02:57:48;99850.97;;;8.82;100.00
62655;BME280;48717;55.556;37.816;2023-09-19T03:00:18;99789.34;;;8.44;100.00
62655;BME280;48717;55.556;37.816;2023-09-19T03:02:55;99934.56;;;9.31;100.00
62655;BME280;48717;55.556;37.816;2023-09-19T03:05:24;99841.31;;;8.79;100.00
62655;BME280;48717;55.556;37.816;2023-09-19T03:07:53;99927.53;;;9.29;100.00
62655;BME280;48717;55.556;37.816;2023-09-19T03:10:23;99940.69;;;9.29;100.00
62655;BME280;48717;55.556;37.816;2023-09-19T03:12:54;99902.88;;;9.11;100.00
62655;BME280;48717;55.556;37.816;2023-09-19T03:15:21;99899.38;;;9.13;100.00
62655;BME280;48717;55.556;37.816;2023-09-19T03:17:51;99795.59;;;8.55;100.00
62655;BME280;48717;55.556;37.816;2023-09-19T03:20:22;99920.53;;;9.26;100.00
62655;BME280;48717;55.556;37.816;2023-09-19T03:22:50;99920.53;;;9.26;100.00
62655;BME280;48717;55.556;37.816;2023-09-19T03:25:20;99908.19;;;9.19;100.00
62655;BME280;48717;55.556;37.816;2023-09-19T03:27:50;99929.28;;;9.28;100.00
62655;BME280;48717;55.556;37.816;2023-09-19T03:30:18;99928.41;;;9.24;100.00
62655;BME280;48717;55.556;37.816;2023-09-19T03:32:46;99896.72;;;9.04;100.00
62655;BME280;48717;55.556;37.816;2023-09-19T03:35:18;99903.72;;;9.07;100.00
62655;BME280;48717;55.556;37.816;2023-09-19T03:37:46;99908.13;;;9.09;100.00
62655;BME280;48717;55.556;37.816;2023-09-19T03:40:14;99935.38;;;9.22;100.00
62655;BME280;48717;55.556;37.816;2023-09-19T03:42:43;99862.41;;;8.85;100.00
62655;BME280;48717;55.556;37.816;2023-09-19T03:45:12;99856.22;;;8.77;100.00
62655;BME280;48717;55.556;37.816;2023-09-19T03:47:46;99908.22;;;9.22;100.00
62655;BME280;48717;55.556;37.816;2023-09-19T03:50:17;99917.91;;;9.31;100.00
62655;BME280;48717;55.556;37.816;2023-09-19T03:52:45;99918.78;;;9.31;100.00
62655;BME280;48717;55.556;37.816;2023-09-19T03:55:12;99917.03;;;9.33;100.00
62655;BME280;48717;55.556;37.816;2023-09-19T03:57:40;99909.16;;;9.30;100.00
62655;BME280;48717;55.556;37.816;2023-09-19T04:00:09;99927.63;;;9.46;100.00
62655;BME280;48717;55.556;37.816;2023-09-19T04:02:41;99885.41;;;9.24;100.00
62655;BME280;48717;55.556;37.816;2023-09-19T04:05:10;99864.31;;;9.14;100.00
62655;BME280;48717;55.556;37.816;2023-09-19T04:07:37;99920.63;;;9.45;100.00
62655;BME280;48717;55.556;37.816;2023-09-19T04:10:05;99872.22;;;9.16;100.00
62655;BME280;48717;55.556;37.816;2023-09-19T04:12:35;99925.00;;;9.46;100.00
62655;BME280;48717;55.556;37.816;2023-09-19T04:15:02;99910.06;;;9.38;100.00
62655;BME280;48717;55.556;37.816;2023-09-19T04:17:31;99880.09;;;9.13;100.00
62655;BME280;48717;55.556;37.816;2023-09-19T04:20:01;99865.16;;;9.09;100.00
62655;BME280;48717;55.556;37.816;2023-09-19T04:22:29;99905.69;;;9.42;100.00
62655;BME280;48717;55.556;37.816;2023-09-19T04:24:56;99883.72;;;9.34;100.00
62655;BME280;48717;55.556;37.816;2023-09-19T04:27:24;99878.41;;;9.23;100.00
62655;BME280;48717;55.556;37.816;2023-09-19T04:29:51;99837.03;;;8.95;100.00
62655;BME280;48717;55.556;37.816;2023-09-19T04:32:20;99898.59;;;9.33;100.00
62655;BME280;48717;55.556;37.816;2023-09-19T04:34:48;99915.34;;;9.45;100.00
62655;BME280;48717;55.556;37.816;2023-09-19T04:37:17;99881.91;;;9.25;100.00
62655;BME280;48717;55.556;37.816;2023-09-19T04:39:44;99899.53;;;9.42;100.00
62655;BME280;48717;55.556;37.816;2023-09-19T04:42:15;99885.47;;;9.36;100.00
62655;BME280;48717;55.556;37.816;2023-09-19T04:44:43;99834.50;;;9.16;100.00
62655;BME280;48717;55.556;37.816;2023-09-19T04:47:10;99864.44;;;9.36;100.00
62655;BME280;48717;55.556;37.816;2023-09-19T04:49:39;99760.72;;;8.84;100.00
62655;BME280;48717;55.556;37.816;2023-09-19T04:52:07;99848.63;;;9.36;100.00
62655;BME280;48717;55.556;37.816;2023-09-19T04:54:34;99869.75;;;9.55;100.00
62655;BME280;48717;55.556;37.816;2023-09-19T04:57:01;99902.34;;;9.77;100.00
62655;BME280;48717;55.556;37.816;2023-09-19T04:59:29;99873.31;;;9.63;100.00
62655;BME280;48717;55.556;37.816;2023-09-19T05:01:56;99905.00;;;9.91;100.00
62655;BME280;48717;55.556;37.816;2023-09-19T05:04:23;99909.41;;;10.00;100.00
62655;BME280;48717;55.556;37.816;2023-09-19T05:06:50;99863.72;;;9.89;100.00
62655;BME280;48717;55.556;37.816;2023-09-19T05:09:17;99867.28;;;10.03;100.00
62655;BME280;48717;55.556;37.816;2023-09-19T05:11:47;99826.84;;;9.84;100.00
62655;BME280;48717;55.556;37.816;2023-09-19T05:14:14;99831.25;;;9.96;100.00
62655;BME280;48717;55.556;37.816;2023-09-19T05:16:41;99861.16;;;10.15;100.00
62655;BME280;48717;55.556;37.816;2023-09-19T05:19:09;99889.28;;;10.38;100.00
62655;BME280;48717;55.556;37.816;2023-09-19T05:21:38;99877.03;;;10.47;100.00
62655;BME280;48717;55.556;37.816;2023-09-19T05:24:06;99877.91;;;10.52;99.55
62655;BME280;48717;55.556;37.816;2023-09-19T05:26:36;99863.84;;;10.65;98.67
62655;BME280;48717;55.556;37.816;2023-09-19T05:29:03;99882.28;;;10.90;97.94
62655;BME280;48717;55.556;37.816;2023-09-19T05:31:32;99884.88;;;11.06;96.93
62655;BME280;48717;55.556;37.816;2023-09-19T05:33:59;99838.31;;;10.92;95.53
62655;BME280;48717;55.556;37.816;2023-09-19T05:36:28;99853.22;;;11.14;94.69
62655;BME280;48717;55.556;37.816;2023-09-19T05:38:56;99859.31;;;11.30;94.13
62655;BME280;48717;55.556;37.816;2023-09-19T05:41:24;99866.31;;;11.40;93.64
62655;BME280;48717;55.556;37.816;2023-09-19T05:43:51;99859.25;;;11.45;93.15
62655;BME280;48717;55.556;37.816;2023-09-19T05:46:18;99867.97;;;11.63;92.60
62655;BME280;48717;55.556;37.816;2023-09-19T05:48:46;99816.13;;;11.49;92.06
62655;BME280;48717;55.556;37.816;2023-09-19T05:51:14;99863.44;;;11.92;91.63
62655;BME280;48717;55.556;37.816;2023-09-19T05:53:42;99845.81;;;11.92;90.83
62655;BME280;48717;55.556;37.816;2023-09-19T05:56:10;99864.19;;;12.17;89.84
62655;BME280;48717;55.556;37.816;2023-09-19T05:58:38;99866.75;;;12.31;89.99
62655;BME280;48717;55.556;37.816;2023-09-19T06:01:05;99819.28;;;12.14;88.77
62655;BME280;48717;55.556;37.816;2023-09-19T06:03:34;99818.31;;;12.27;89.11
62655;BME280;48717;55.556;37.816;2023-09-19T06:06:02;99825.25;;;12.38;88.02
62655;BME280;48717;55.556;37.816;2023-09-19T06:08:29;99851.47;;;12.66;88.13
62655;BME280;48717;55.556;37.816;2023-09-19T06:10:58;99830.38;;;12.57;87.86
62655;BME280;48717;55.556;37.816;2023-09-19T06:13:29;99792.31;;;12.75;86.75
62655;BME280;48717;55.556;37.816;2023-09-19T06:15:56;99858.47;;;13.58;83.91
62655;BME280;48717;55.556;37.816;2023-09-19T06:18:25;99799.13;;;13.70;81.72
62655;BME280;48717;55.556;37.816;2023-09-19T06:20:53;99860.41;;;14.65;78.73
62655;BME280;48717;55.556;37.816;2023-09-19T06:23:21;99865.06;;;15.04;76.08
62655;BME280;48717;55.556;37.816;2023-09-19T06:25:49;99831.63;;;14.93;74.45
62655;BME280;48717;55.556;37.816;2023-09-19T06:28:16;99861.72;;;15.39;74.03
62655;BME280;48717;55.556;37.816;2023-09-19T06:30:50;99853.66;;;15.44;73.42
62655;BME280;48717;55.556;37.816;2023-09-19T06:33:17;99845.53;;;15.52;72.30
62655;BME280;48717;55.556;37.816;2023-09-19T06:35:45;99828.38;;;15.67;71.71
62655;BME280;48717;55.556;37.816;2023-09-19T06:38:14;99830.97;;;16.10;70.28
62655;BME280;48717;55.556;37.816;2023-09-19T06:40:42;99845.09;;;16.50;68.09
62655;BME280;48717;55.556;37.816;2023-09-19T06:43:12;99819.16;;;16.60;66.88
62655;BME280;48717;55.556;37.816;2023-09-19T06:45:41;99796.72;;;16.68;65.71
62655;BME280;48717;55.556;37.816;2023-09-19T06:48:09;99845.72;;;17.28;65.10
62655;BME280;48717;55.556;37.816;2023-09-19T06:50:37;99795.38;;;17.18;63.65
62655;BME280;48717;55.556;37.816;2023-09-19T06:53:05;99806.31;;;17.09;64.34
62655;BME280;48717;55.556;37.816;2023-09-19T06:55:32;99840.34;;;17.61;63.39
62655;BME280;48717;55.556;37.816;2023-09-19T06:58:01;99823.31;;;17.95;62.35
62655;BME280;48717;55.556;37.816;2023-09-19T07:00:28;99833.75;;;18.59;59.96
62655;BME280;48717;55.556;37.816;2023-09-19T07:02:59;99816.97;;;18.81;59.12
62655;BME280;48717;55.556;37.816;2023-09-19T07:05:31;99812.59;;;19.03;58.10
62655;BME280;48717;55.556;37.816;2023-09-19T07:07:59;99827.09;;;19.47;56.46
62655;BME280;48717;55.556;37.816;2023-09-19T07:10:27;99837.47;;;19.79;55.64
62655;BME280;48717;55.556;37.816;2023-09-19T07:12:57;99838.41;;;20.02;54.57
62655;BME280;48717;55.556;37.816;2023-09-19T07:15:25;99820.09;;;19.67;55.38
62655;BME280;48717;55.556;37.816;2023-09-19T07:17:54;99841.75;;;19.37;56.51
62655;BME280;48717;55.556;37.816;2023-09-19T07:20:24;99805.69;;;18.72;57.42
62655;BME280;48717;55.556;37.816;2023-09-19T07:22:56;99840.69;;;18.37;59.66
62655;BME280;48717;55.556;37.816;2023-09-19T07:25:27;99841.16;;;17.93;61.58
62655;BME280;48717;55.556;37.816;2023-09-19T07:27:55;99842.28;;;17.56;63.24
62655;BME280;48717;55.556;37.816;2023-09-19T07:30:23;99849.31;;;17.27;64.92
62655;BME280;48717;55.556;37.816;2023-09-19T07:32:50;99826.88;;;17.02;65.63
62655;BME280;48717;55.556;37.816;2023-09-19T07:35:17;99825.16;;;17.00;65.54
62655;BME280;48717;55.556;37.816;2023-09-19T07:37:50;99837.41;;;17.08;66.37
62655;BME280;48717;55.556;37.816;2023-09-19T07:40:19;99852.53;;;17.06;66.71
62655;BME280;48717;55.556;37.816;2023-09-19T07:42:48;99831.41;;;16.99;66.66
62655;BME280;48717;55.556;37.816;2023-09-19T07:45:16;99837.88;;;17.23;66.10
62655;BME280;48717;55.556;37.816;2023-09-19T07:47:45;99824.53;;;17.25;65.98
62655;BME280;48717;55.556;37.816;2023-09-19T07:50:14;99839.31;;;17.35;65.72
62655;BME280;48717;55.556;37.816;2023-09-19T07:52:43;99830.66;;;17.27;66.20
62655;BME280;48717;55.556;37.816;2023-09-19T07:55:10;99798.16;;;17.15;66.04
62655;BME280;48717;55.556;37.816;2023-09-19T07:57:44;99824.63;;;17.52;65.38
62655;BME280;48717;55.556;37.816;2023-09-19T08:00:13;99804.00;;;17.58;64.52
62655;BME280;48717;55.556;37.816;2023-09-19T08:02:41;99801.16;;;17.63;64.40
62655;BME280;48717;55.556;37.816;2023-09-19T08:05:10;99820.81;;;17.89;63.70
62655;BME280;48717;55.556;37.816;2023-09-19T08:07:40;99823.50;;;17.89;63.77
62655;BME280;48717;55.556;37.816;2023-09-19T08:10:08;99793.81;;;17.71;64.17
62655;BME280;48717;55.556;37.816;2023-09-19T08:12:40;99816.41;;;17.88;63.43
62655;BME280;48717;55.556;37.816;2023-09-19T08:15:19;99795.81;;;17.93;63.53
62655;BME280;48717;55.556;37.816;2023-09-19T08:17:49;99787.81;;;17.93;63.57
62655;BME280;48717;55.556;37.816;2023-09-19T08:20:17;99796.31;;;18.06;63.42
62655;BME280;48717;55.556;37.816;2023-09-19T08:22:50;99773.34;;;18.00;62.98
62655;BME280;48717;55.556;37.816;2023-09-19T08:25:23;99763.75;;;17.95;63.20
62655;BME280;48717;55.556;37.816;2023-09-19T08:27:52;99796.03;;;18.16;63.21
62655;BME280;48717;55.556;37.816;2023-09-19T08:30:21;99796.78;;;18.19;63.09
62655;BME280;48717;55.556;37.816;2023-09-19T08:32:56;99768.13;;;17.97;63.15
62655;BME280;48717;55.556;37.816;2023-09-19T08:35:25;99785.06;;;17.96;63.61
62655;BME280;48717;55.556;37.816;2023-09-19T08:37:52;99782.56;;;17.90;63.30
62655;BME280;48717;55.556;37.816;2023-09-19T08:40:19;99782.56;;;17.90;63.69
62655;BME280;48717;55.556;37.816;2023-09-19T08:42:53;99762.47;;;18.07;62.53
62655;BME280;48717;55.556;37.816;2023-09-19T08:45:25;99753.97;;;18.24;62.44
62655;BME280;48717;55.556;37.816;2023-09-19T08:56:02;99756.13;;;18.38;62.38
62655;BME280;48717;55.556;37.816;2023-09-19T08:58:38;99758.75;;;19.16;59.57
62655;BME280;48717;55.556;37.816;2023-09-19T09:01:08;99765.31;;;20.22;56.40
62655;BME280;48717;55.556;37.816;2023-09-19T09:03:40;99769.22;;;20.98;52.87
62655;BME280;48717;55.556;37.816;2023-09-19T09:06:08;99755.31;;;20.90;52.70
62655;BME280;48717;55.556;37.816;2023-09-19T09:08:42;99755.34;;;21.28;51.45
62655;BME280;48717;55.556;37.816;2023-09-19T09:11:09;99748.09;;;21.69;50.85
62655;BME280;48717;55.556;37.816;2023-09-19T09:13:41;99743.78;;;22.03;50.11
62655;BME280;48717;55.556;37.816;2023-09-19T09:16:09;99724.34;;;22.33;48.64
62655;BME280;48717;55.556;37.816;2023-09-19T09:18:37;99740.94;;;22.77;47.66
62655;BME280;48717;55.556;37.816;2023-09-19T09:21:04;99740.28;;;22.89;47.17
62655;BME280;48717;55.556;37.816;2023-09-19T09:23:32;99735.09;;;23.02;46.63
62655;BME280;48717;55.556;37.816;2023-09-19T09:25:59;99749.06;;;23.09;46.87
62655;BME280;48717;55.556;37.816;2023-09-19T09:28:31;99741.84;;;22.93;47.45
62655;BME280;48717;55.556;37.816;2023-09-19T09:30:58;99748.03;;;22.78;47.55
62655;BME280;48717;55.556;37.816;2023-09-19T09:33:25;99735.66;;;22.58;47.57
62655;BME280;48717;55.556;37.816;2023-09-19T09:35:54;99738.09;;;22.45;48.31
62655;BME280;48717;55.556;37.816;2023-09-19T09:38:28;99713.44;;;22.19;49.35
62655;BME280;48717;55.556;37.816;2023-09-19T09:41:00;99703.03;;;21.95;49.96
62655;BME280;48717;55.556;37.816;2023-09-19T09:43:38;99710.59;;;22.04;50.07
62655;BME280;48717;55.556;37.816;2023-09-19T09:49:05;99713.88;;;21.35;52.04
62655;BME280;48717;55.556;37.816;2023-09-19T09:52:05;99708.44;;;21.18;52.32
62655;BME280;48717;55.556;37.816;2023-09-19T09:54:37;99726.38;;;21.36;52.82
62655;BME280;48717;55.556;37.816;2023-09-19T09:57:10;99724.03;;;21.48;52.36
62655;BME280;48717;55.556;37.816;2023-09-19T09:59:55;99721.53;;;21.62;51.79
62655;BME280;48717;55.556;37.816;2023-09-19T10:02:29;99703.63;;;21.82;51.44
62655;BME280;48717;55.556;37.816;2023-09-19T10:05:12;99707.03;;;21.86;51.23
62655;BME280;48717;55.556;37.816;2023-09-19T10:07:50;99725.38;;;22.30;50.15
62655;BME280;48717;55.556;37.816;2023-09-19T10:10:36;99728.94;;;22.49;49.42
62655;BME280;48717;55.556;37.816;2023-09-19T10:13:11;99709.97;;;22.52;49.23
62655;BME280;48717;55.556;37.816;2023-09-19T10:15:47;99724.59;;;22.64;49.36
62655;BME280;48717;55.556;37.816;2023-09-19T10:18:21;99712.78;;;22.84;48.59
62655;BME280;48717;55.556;37.816;2023-09-19T10:20:49;99693.09;;;23.00;48.24
62655;BME280;48717;55.556;37.816;2023-09-19T10:23:19;99690.38;;;23.66;46.37
62655;BME280;48717;55.556;37.816;2023-09-19T10:25:52;99682.31;;;23.96;45.97
62655;BME280;48717;55.556;37.816;2023-09-19T10:28:20;99675.63;;;23.57;47.09
62655;BME280;48717;55.556;37.816;2023-09-19T10:30:52;99666.31;;;23.79;46.13
62655;BME280;48717;55.556;37.816;2023-09-19T10:33:22;99676.31;;;23.77;46.16
62655;BME280;48717;55.556;37.816;2023-09-19T10:35:53;99689.34;;;23.68;46.32
62655;BME280;48717;55.556;37.816;2023-09-19T10:38:26;99691.44;;;23.47;46.81
62655;BME280;48717;55.556;37.816;2023-09-19T10:40:56;99680.34;;;23.37;47.29
62655;BME280;48717;55.556;37.816;2023-09-19T10:43:32;99673.53;;;23.30;47.60
62655;BME280;48717;55.556;37.816;2023-09-19T10:46:07;99685.66;;;23.05;48.32
62655;BME280;48717;55.556;37.816;2023-09-19T10:48:34;99668.31;;;22.94;48.39
62655;BME280;48717;55.556;37.816;2023-09-19T10:53:49;99654.78;;;22.80;48.96
62655;BME280;48717;55.556;37.816;2023-09-19T10:56:29;99675.00;;;22.87;48.93
62655;BME280;48717;55.556;37.816;2023-09-19T10:59:16;99678.16;;;22.78;49.03
62655;BME280;48717;55.556;37.816;2023-09-19T11:01:47;99676.59;;;22.74;49.73
62655;BME280;48717;55.556;37.816;2023-09-19T11:07:06;99671.91;;;22.61;50.32
62655;BME280;48717;55.556;37.816;2023-09-19T11:09:43;99658.97;;;23.02;49.57
62655;BME280;48717;55.556;37.816;2023-09-19T11:12:58;99659.03;;;24.11;47.00
62655;BME280;48717;55.556;37.816;2023-09-19T11:15:00;99647.97;;;25.33;44.17
62655;BME280;48717;55.556;37.816;2023-09-19T11:17:35;99648.50;;;26.33;41.74
62655;BME280;48717;55.556;37.816;2023-09-19T11:30:36;99625.63;;;29.38;34.93
62655;BME280;48717;55.556;37.816;2023-09-19T11:36:13;99627.16;;;30.17;33.62
62655;BME280;48717;55.556;37.816;2023-09-19T11:46:27;99630.75;;;31.21;31.70
62655;BME280;48717;55.556;37.816;2023-09-19T11:49:08;99629.22;;;30.78;32.52
62655;BME280;48717;55.556;37.816;2023-09-19T11:51:43;99630.06;;;30.26;33.28
62655;BME280;48717;55.556;37.816;2023-09-19T11:54:13;99633.25;;;30.31;33.51
62655;BME280;48717;55.556;37.816;2023-09-19T11:56:45;99625.44;;;29.95;33.40
62655;BME280;48717;55.556;37.816;2023-09-19T11:59:27;99622.06;;;29.37;34.57
62655;BME280;48717;55.556;37.816;2023-09-19T12:02:01;99599.41;;;29.48;34.33
62655;BME280;48717;55.556;37.816;2023-09-19T12:04:37;99616.09;;;29.43;34.80
62655;BME280;48717;55.556;37.816;2023-09-19T12:09:45;99610.69;;;30.40;33.20
62655;BME280;48717;55.556;37.816;2023-09-19T12:12:23;99603.75;;;30.98;31.98
62655;BME280;48717;55.556;37.816;2023-09-19T12:14:50;99598.91;;;31.12;31.69
62655;BME280;48717;55.556;37.816;2023-09-19T12:17:18;99609.44;;;30.76;32.11
62655;BME280;48717;55.556;37.816;2023-09-19T12:19:52;99598.53;;;30.13;32.95
62655;BME280;48717;55.556;37.816;2023-09-19T12:22:20;99586.25;;;29.98;33.57
62655;BME280;48717;55.556;37.816;2023-09-19T12:24:49;99589.75;;;30.31;33.30
62655;BME280;48717;55.556;37.816;2023-09-19T12:27:17;99592.84;;;30.47;32.87
62655;BME280;48717;55.556;37.816;2023-09-19T12:29:47;99598.88;;;29.87;34.33
62655;BME280;48717;55.556;37.816;2023-09-19T12:32:17;99573.56;;;30.08;33.78
62655;BME280;48717;55.556;37.816;2023-09-19T12:34:51;99570.69;;;30.62;32.63
62655;BME280;48717;55.556;37.816;2023-09-19T12:37:20;99584.31;;;31.13;32.22
62655;BME280;48717;55.556;37.816;2023-09-19T12:39:50;99571.69;;;31.12;32.18
62655;BME280;48717;55.556;37.816;2023-09-19T12:42:21;99592.69;;;30.49;33.31
62655;BME280;48717;55.556;37.816;2023-09-19T12:44:51;99582.31;;;30.33;33.48
62655;BME280;48717;55.556;37.816;2023-09-19T12:47:30;99580.59;;;30.32;33.26
62655;BME280;48717;55.556;37.816;2023-09-19T12:50:14;99588.16;;;29.64;34.63
62655;BME280;48717;55.556;37.816;2023-09-19T12:52:49;99568.50;;;30.15;34.11
62655;BME280;48717;55.556;37.816;2023-09-19T13:00:40;99578.50;;;30.14;34.44
62655;BME280;48717;55.556;37.816;2023-09-19T13:08:30;99583.19;;;28.47;37.27
62655;BME280;48717;55.556;37.816;2023-09-19T13:13:39;99562.72;;;28.65;37.25
62655;BME280;48717;55.556;37.816;2023-09-19T13:16:07;99548.13;;;28.09;37.78
62655;BME280;48717;55.556;37.816;2023-09-19T13:18:50;99563.66;;;28.19;37.94
62655;BME280;48717;55.556;37.816;2023-09-19T13:21:33;99560.25;;;28.39;37.86
62655;BME280;48717;55.556;37.816;2023-09-19T13:24:24;99549.16;;;28.65;37.16
62655;BME280;48717;55.556;37.816;2023-09-19T13:26:56;99550.09;;;28.99;36.70
62655;BME280;48717;55.556;37.816;2023-09-19T13:29:24;99554.81;;;28.97;36.74
62655;BME280;48717;55.556;37.816;2023-09-19T13:31:52;99549.28;;;28.75;36.93
62655;BME280;48717;55.556;37.816;2023-09-19T13:34:22;99530.41;;;28.74;36.78
62655;BME280;48717;55.556;37.816;2023-09-19T13:36:50;99553.06;;;28.84;37.12
62655;BME280;48717;55.556;37.816;2023-09-19T13:39:17;99552.59;;;28.79;36.85
62655;BME280;48717;55.556;37.816;2023-09-19T13:41:45;99537.47;;;28.42;37.48
62655;BME280;48717;55.556;37.816;2023-09-19T13:44:14;99543.19;;;27.80;38.81
62655;BME280;48717;55.556;37.816;2023-09-19T13:46:41;99554.16;;;27.54;39.70
62655;BME280;48717;55.556;37.816;2023-09-19T13:49:13;99546.91;;;27.30;39.87
62655;BME280;48717;55.556;37.816;2023-09-19T13:51:40;99547.41;;;26.87;41.29
62655;BME280;48717;55.556;37.816;2023-09-19T13:54:11;99524.38;;;26.81;41.34
62655;BME280;48717;55.556;37.816;2023-09-19T13:56:39;99551.72;;;26.26;42.50
62655;BME280;48717;55.556;37.816;2023-09-19T13:59:07;99552.06;;;25.54;44.65
62655;BME280;48717;55.556;37.816;2023-09-19T14:01:45;99540.41;;;25.13;45.89
62655;BME280;48717;55.556;37.816;2023-09-19T14:04:13;99542.75;;;24.48;47.87
62655;BME280;48717;55.556;37.816;2023-09-19T14:06:42;99548.91;;;24.21;48.77
62655;BME280;48717;55.556;37.816;2023-09-19T14:09:10;99542.00;;;23.86;50.07
62655;BME280;48717;55.556;37.816;2023-09-19T14:11:38;99539.63;;;23.96;49.70